createdAt,value
2024-02-21T00:04:30.668Z,28.39
2024-02-21T00:09:33.632Z,28.16
2024-02-21T00:14:37.835Z,28.56
2024-02-21T00:19:41.077Z,28.36
2024-02-21T00:24:44.032Z,28.45
2024-02-21T00:29:48.236Z,28.03
2024-02-21T00:34:51.170Z,28.13
2024-02-21T00:39:56.000Z,28.54
2024-02-21T00:45:00.437Z,27.94
2024-02-21T00:50:04.383Z,28.52
2024-02-21T00:55:10.425Z,28.36
2024-02-21T01:00:15.867Z,28.05
2024-02-21T01:05:19.255Z,28.19
2024-02-21T01:10:22.459Z,28.32
2024-02-21T01:15:26.866Z,28.38
2024-02-21T01:20:29.818Z,27.99
2024-02-21T01:25:32.738Z,28.42
2024-02-21T01:30:37.097Z,28.45
2024-02-21T01:35:40.202Z,27.98
2024-02-21T01:40:43.314Z,28.20
2024-02-21T01:45:50.609Z,28.05
2024-02-21T01:50:54.018Z,27.91
2024-02-21T01:55:56.958Z,27.81
2024-02-21T02:01:01.679Z,27.81
2024-02-21T02:06:06.369Z,27.81
2024-02-21T02:11:09.410Z,28.12
2024-02-21T02:16:13.769Z,27.92
2024-02-21T02:21:26.364Z,28.16
2024-02-21T02:26:30.565Z,27.95
2024-02-21T02:31:33.536Z,27.94
2024-02-21T02:36:36.501Z,27.93
2024-02-21T02:41:40.713Z,27.85
2024-02-21T02:46:43.668Z,27.91
2024-02-21T02:51:46.586Z,28.17
2024-02-21T02:56:52.720Z,27.97
2024-02-21T03:01:55.650Z,28.14
2024-02-21T03:06:58.625Z,28.17
2024-02-21T03:12:04.728Z,27.96
2024-02-21T03:17:07.640Z,27.91
2024-02-21T03:22:10.520Z,27.72
2024-02-21T03:27:14.812Z,27.95
2024-02-21T03:32:17.770Z,27.65
2024-02-21T03:37:20.693Z,27.79
2024-02-21T03:42:24.994Z,27.58
2024-02-21T03:47:28.129Z,27.55
2024-02-21T03:52:31.085Z,27.57
2024-02-21T03:57:35.366Z,28.00
2024-02-21T04:02:38.245Z,27.54
2024-02-21T04:07:41.392Z,27.88
2024-02-21T04:12:45.677Z,27.74
2024-02-21T04:17:48.709Z,27.55
2024-02-21T04:22:51.865Z,27.72
2024-02-21T04:27:56.091Z,27.74
2024-02-21T04:32:58.992Z,27.86
2024-02-21T04:38:02.091Z,27.83
2024-02-21T04:43:06.473Z,27.51
2024-02-21T04:48:09.466Z,27.80
2024-02-21T04:53:12.368Z,27.76
2024-02-21T04:58:16.632Z,27.27
2024-02-21T05:03:19.560Z,27.32
2024-02-21T05:08:22.461Z,27.62
2024-02-21T05:13:27.016Z,27.63
2024-02-21T05:18:30.153Z,27.40
2024-02-21T05:23:33.236Z,27.49
2024-02-21T05:28:37.593Z,27.69
2024-02-21T05:33:40.584Z,27.52
2024-02-21T05:38:43.483Z,27.22
2024-02-21T05:43:47.724Z,27.10
2024-02-21T05:48:50.729Z,27.03
2024-02-21T05:53:53.706Z,26.81
2024-02-21T05:58:58.326Z,27.03
2024-02-21T06:04:01.396Z,26.77
2024-02-21T06:09:04.814Z,26.68
2024-02-21T06:14:09.060Z,26.74
2024-02-21T06:19:12.047Z,26.85
2024-02-21T06:24:14.946Z,26.75
2024-02-21T06:29:19.231Z,27.07
2024-02-21T06:34:22.700Z,27.26
2024-02-21T06:39:25.966Z,27.01
2024-02-21T06:44:30.673Z,27.13
2024-02-21T06:49:33.690Z,26.94
2024-02-21T06:54:36.640Z,27.08
2024-02-21T06:59:40.841Z,26.59
2024-02-21T07:04:44.898Z,26.99
2024-02-21T07:09:49.876Z,26.87
2024-02-21T07:14:54.090Z,26.58
2024-02-21T07:19:58.079Z,26.55
2024-02-21T07:25:03.696Z,26.93
2024-02-21T07:30:12.280Z,26.94
2024-02-21T07:35:16.588Z,26.64
2024-02-21T07:40:19.716Z,26.47
2024-02-21T07:45:25.162Z,26.98
2024-02-21T07:50:28.346Z,26.35
2024-02-21T07:55:31.384Z,26.45
2024-02-21T08:00:35.951Z,26.42
2024-02-21T08:05:38.875Z,26.43
2024-02-21T08:10:41.857Z,26.47
2024-02-21T08:15:46.228Z,26.48
2024-02-21T08:20:49.266Z,26.88
2024-02-21T08:25:52.192Z,26.83
2024-02-21T08:30:56.437Z,27.77
2024-02-21T08:35:59.413Z,28.68
2024-02-21T08:41:02.443Z,29.14
2024-02-21T08:46:07.525Z,28.99
2024-02-21T08:51:10.609Z,28.50
2024-02-21T08:56:14.004Z,28.35
2024-02-21T09:01:18.314Z,28.38
2024-02-21T09:06:21.963Z,28.75
2024-02-21T09:11:24.970Z,28.88
2024-02-21T09:16:29.277Z,29.26
2024-02-21T09:21:32.240Z,30.54
2024-02-21T09:26:35.582Z,29.80
2024-02-21T09:31:40.744Z,28.62
2024-02-21T09:36:44.668Z,29.43
2024-02-21T09:41:49.558Z,28.27
2024-02-21T09:46:58.311Z,28.70
2024-02-21T09:52:07.034Z,28.82
2024-02-21T09:57:10.268Z,28.55
2024-02-21T10:02:14.723Z,28.79
2024-02-21T10:07:17.771Z,28.73
2024-02-21T10:12:20.676Z,29.64
2024-02-21T10:17:24.979Z,28.79
2024-02-21T10:22:29.432Z,28.63
2024-02-21T10:27:32.974Z,28.85
2024-02-21T10:32:37.247Z,28.34
2024-02-21T10:37:40.234Z,28.73
2024-02-21T10:42:43.933Z,28.84
2024-02-21T10:47:52.396Z,29.01
2024-02-21T10:53:03.640Z,30.14
2024-02-21T10:58:06.808Z,28.68
2024-02-21T11:03:11.655Z,28.52
2024-02-21T11:08:15.200Z,28.63
2024-02-21T11:13:18.880Z,28.47
2024-02-21T11:18:29.743Z,28.60
2024-02-21T11:23:32.847Z,28.12
2024-02-21T11:28:37.443Z,28.00
2024-02-21T11:33:43.189Z,28.27
2024-02-21T11:38:46.596Z,28.13
2024-02-21T11:43:50.997Z,28.32
2024-02-21T11:48:55.377Z,28.08
2024-02-21T11:54:01.934Z,27.80
2024-02-21T11:59:07.748Z,27.51
2024-02-21T12:04:12.420Z,27.87
2024-02-21T12:09:16.505Z,28.03
2024-02-21T12:14:19.495Z,27.63
2024-02-21T12:19:24.113Z,28.45
2024-02-21T12:24:28.221Z,27.93
2024-02-21T12:29:31.393Z,27.66
2024-02-21T12:34:44.449Z,27.20
2024-02-21T12:39:56.174Z,27.60
2024-02-21T12:44:59.192Z,27.94
2024-02-21T12:50:04.878Z,28.17
2024-02-21T12:55:09.807Z,28.01
2024-02-21T13:00:13.804Z,27.82
2024-02-21T13:05:18.262Z,27.74
2024-02-21T13:10:21.279Z,28.07
2024-02-21T13:15:24.306Z,28.25
2024-02-21T13:20:29.874Z,28.42
2024-02-21T13:25:32.987Z,28.26
2024-02-21T13:30:35.950Z,28.06
2024-02-21T13:35:40.365Z,28.28
2024-02-21T13:40:44.047Z,27.80
2024-02-21T13:45:58.275Z,28.40
2024-02-21T13:51:03.402Z,28.07
2024-02-21T13:56:06.994Z,28.72
2024-02-21T14:01:10.793Z,29.37
2024-02-21T14:06:15.144Z,29.29
2024-02-21T14:11:18.147Z,28.76
2024-02-21T14:16:21.144Z,28.68
2024-02-21T14:21:25.485Z,29.09
2024-02-21T14:26:28.446Z,28.73
2024-02-21T14:31:31.833Z,28.60
2024-02-21T14:36:36.084Z,29.13
2024-02-21T14:41:40.778Z,28.64
2024-02-21T14:46:43.705Z,28.41
2024-02-21T14:51:47.968Z,28.40
2024-02-21T14:56:51.062Z,28.00
2024-02-21T15:01:53.960Z,28.31
2024-02-21T15:06:58.152Z,28.25
2024-02-21T15:12:01.102Z,28.46
2024-02-21T15:17:04.094Z,28.21
2024-02-21T15:22:08.348Z,28.23
2024-02-21T15:27:11.284Z,28.28
2024-02-21T15:32:14.354Z,28.52
2024-02-21T15:37:18.740Z,28.23
2024-02-21T15:42:22.125Z,28.12
2024-02-21T15:47:25.043Z,28.24
2024-02-21T15:52:29.384Z,28.12
2024-02-21T15:57:33.481Z,28.31
2024-02-21T16:02:36.375Z,28.67
2024-02-21T16:07:40.668Z,29.15
2024-02-21T16:12:43.586Z,28.80
2024-02-21T16:17:46.552Z,28.07
2024-02-21T16:22:50.879Z,26.92
2024-02-21T16:27:54.182Z,27.05
2024-02-21T16:32:57.422Z,27.45
2024-02-21T16:38:03.473Z,28.27
2024-02-21T16:43:06.929Z,28.13
2024-02-21T16:48:10.275Z,27.80
2024-02-21T16:53:15.447Z,28.13
2024-02-21T16:58:18.526Z,27.99
2024-02-21T17:03:22.440Z,28.16
2024-02-21T17:08:27.234Z,28.31
2024-02-21T17:13:30.151Z,28.17
2024-02-21T17:18:33.176Z,28.25
2024-02-21T17:23:37.597Z,28.80
2024-02-21T17:28:40.516Z,28.69
2024-02-21T17:33:43.586Z,28.17
2024-02-21T17:38:49.453Z,28.53
2024-02-21T17:43:53.001Z,27.98
2024-02-21T17:48:56.052Z,27.94
2024-02-21T17:54:00.414Z,28.27
2024-02-21T17:59:03.724Z,27.53
2024-02-21T18:04:07.066Z,27.79
2024-02-21T18:09:11.389Z,27.45
2024-02-21T18:14:14.348Z,27.84
2024-02-21T18:19:20.597Z,27.22
2024-02-21T18:24:25.050Z,27.62
2024-02-21T18:29:37.885Z,27.65
2024-02-21T18:34:42.914Z,27.54
2024-02-21T18:39:47.716Z,27.18
2024-02-21T18:44:51.428Z,27.17
2024-02-21T18:49:54.519Z,27.20
2024-02-21T18:54:59.529Z,27.02
2024-02-21T19:00:08.013Z,27.10
2024-02-21T19:05:11.207Z,27.10
2024-02-21T19:10:15.897Z,26.65
2024-02-21T19:15:18.830Z,27.08
2024-02-21T19:20:21.782Z,26.70
2024-02-21T19:25:26.888Z,26.76
2024-02-21T19:30:31.239Z,27.10
2024-02-21T19:35:34.349Z,26.99
2024-02-21T19:40:38.615Z,26.77
2024-02-21T19:45:41.615Z,27.09
2024-02-21T19:50:44.618Z,26.76
2024-02-21T19:55:48.977Z,26.82
2024-02-21T20:00:52.140Z,27.01
2024-02-21T20:05:55.215Z,26.68
2024-02-21T20:10:59.808Z,27.17
2024-02-21T20:16:03.454Z,27.23
2024-02-21T20:21:07.112Z,26.92
2024-02-21T20:26:11.378Z,26.85
2024-02-21T20:31:20.559Z,26.97
2024-02-21T20:36:23.450Z,27.34
2024-02-21T20:41:27.736Z,26.98
2024-02-21T20:46:30.704Z,27.00
2024-02-21T20:51:33.639Z,27.32
2024-02-21T20:56:38.136Z,27.43
2024-02-21T21:01:47.009Z,27.43
2024-02-21T21:06:54.102Z,27.34
2024-02-21T21:11:58.508Z,27.42
2024-02-21T21:17:05.043Z,27.45
2024-02-21T21:22:08.568Z,27.16
2024-02-21T21:27:14.794Z,27.60
2024-02-21T21:32:17.817Z,27.36
2024-02-21T21:37:21.717Z,27.32
2024-02-21T21:42:26.168Z,27.49
2024-02-21T21:47:29.115Z,27.70
2024-02-21T21:52:32.624Z,27.54
2024-02-21T21:57:36.950Z,27.60
2024-02-21T22:02:40.208Z,27.54
2024-02-21T22:07:43.240Z,27.36
2024-02-21T22:12:47.529Z,27.24
2024-02-21T22:17:50.505Z,27.67
2024-02-21T22:22:53.802Z,27.54
2024-02-21T22:27:58.034Z,27.60
2024-02-21T22:33:01.091Z,27.29
2024-02-21T22:38:04.824Z,27.67
2024-02-21T22:43:09.879Z,27.32
2024-02-21T22:48:12.847Z,27.39
2024-02-21T22:53:15.835Z,27.57
2024-02-21T22:58:22.830Z,27.44
2024-02-21T23:03:25.882Z,27.27
2024-02-21T23:08:28.967Z,27.40
2024-02-21T23:13:33.760Z,27.17
2024-02-21T23:18:37.949Z,27.52
2024-02-21T23:23:40.906Z,27.13
2024-02-21T23:28:45.464Z,27.16
2024-02-21T23:33:48.534Z,27.08
2024-02-21T23:38:51.591Z,27.30
2024-02-21T23:43:59.057Z,27.33
2024-02-21T23:49:03.440Z,27.47
2024-02-21T23:54:06.437Z,27.25
2024-02-21T23:59:10.741Z,27.43
